Time;durP1;ratioP1;P1;durP2;ratioP2;P2;SDS_P1;SDS_P2;PMS_P1;PMS_P2;Temp;Humidity;BMP_temperature;BMP_pressure;BME280_temperature;BME280_humidity;BME280_pressure;Samples;Min_cycle;Max_cycle;Signal;HPM_P1;HPM_P2
2022/02/08 00:00:49;;;;;;;14.90;8.15;;;;;;;3.62;70.21;99427.50;1690223;82;21067;-58
2022/02/08 00:03:11;;;;;;;13.30;8.10;;;;;;;3.65;70.29;99428.61;1756070;80;20992;-60
2022/02/08 00:05:38;;;;;;;14.00;8.88;;;;;;;3.64;70.23;99434.73;1751030;80;21076;-59
2022/02/08 00:08:05;;;;;;;13.75;8.28;;;;;;;3.60;70.44;99435.85;1737949;80;21082;-60
2022/02/08 00:10:33;;;;;;;13.08;7.97;;;;;;;3.57;70.59;99446.48;1755270;80;21956;-59
2022/02/08 00:13:00;;;;;;;14.55;8.43;;;;;;;3.58;70.68;99441.62;1699171;83;21126;-59
2022/02/08 00:15:27;;;;;;;15.32;8.88;;;;;;;3.58;70.72;99446.83;1739845;80;21119;-59
2022/02/08 00:17:53;;;;;;;12.43;8.23;;;;;;;3.52;71.00;99453.28;1716940;81;21027;-63
2022/02/08 00:20:20;;;;;;;15.15;8.70;;;;;;;3.50;71.07;99459.06;1699720;82;21114;-59
2022/02/08 00:22:46;;;;;;;13.65;6.60;;;;;;;3.54;70.97;99461.34;1755665;80;21460;-60
2022/02/08 00:25:13;;;;;;;12.60;7.45;;;;;;;3.53;71.04;99466.64;1753480;80;21047;-59
2022/02/08 00:27:40;;;;;;;10.75;7.00;;;;;;;3.51;71.07;99468.52;1754711;80;21042;-59
2022/02/08 00:30:08;;;;;;;12.60;6.35;;;;;;;3.48;71.15;99477.36;1756751;80;21066;-59
2022/02/08 00:32:35;;;;;;;10.58;6.28;;;;;;;3.47;71.20;99475.69;1766629;80;21007;-59
2022/02/08 00:35:02;;;;;;;9.20;5.25;;;;;;;3.45;71.19;99467.63;1762350;80;21147;-59
2022/02/08 00:37:29;;;;;;;8.78;5.80;;;;;;;3.40;71.27;99484.83;1704259;82;21511;-59
2022/02/08 00:39:56;;;;;;;10.55;5.40;;;;;;;3.34;71.32;99478.71;1753746;80;21050;-59
2022/02/08 00:42:24;;;;;;;9.53;4.30;;;;;;;3.32;71.40;99483.18;1757665;80;21012;-59
2022/02/08 00:45:05;;;;;;;9.35;4.50;;;;;;;3.33;71.12;99485.69;1762169;80;21532;-59
2022/02/08 00:47:33;;;;;;;7.20;4.10;;;;;;;3.28;71.15;99490.83;1756442;80;21142;-58
2022/02/08 00:50:05;;;;;;;6.70;3.52;;;;;;;3.20;71.15;99491.30;1740844;80;21090;-58
2022/02/08 00:52:25;;;;;;;6.60;3.45;;;;;;;3.14;71.16;99492.54;1744253;80;21054;-59
2022/02/08 00:54:51;;;;;;;7.62;2.90;;;;;;;3.11;71.01;99483.63;1764563;80;21055;-60
2022/02/08 00:57:18;;;;;;;5.83;2.83;;;;;;;3.07;70.89;99505.53;1762898;80;21110;-60
2022/02/08 00:59:45;;;;;;;6.65;3.12;;;;;;;2.92;70.99;99506.02;1763482;80;21119;-59
2022/02/08 01:02:12;;;;;;;5.95;2.33;;;;;;;2.89;70.97;99500.19;1735915;80;21549;-59
2022/02/08 01:04:39;;;;;;;5.28;2.10;;;;;;;2.85;70.93;99497.42;1760708;80;21544;-59
2022/02/08 01:07:07;;;;;;;5.55;2.45;;;;;;;2.75;71.01;99499.27;1735238;80;21039;-59
2022/02/08 01:09:59;;;;;;;4.55;1.65;;;;;;;2.74;71.03;99508.02;1762810;80;21066;-59
2022/02/08 01:12:06;;;;;;;5.03;2.10;;;;;;;2.75;71.04;99510.97;1736393;80;21471;-59
2022/02/08 01:14:38;;;;;;;5.50;2.10;;;;;;;2.75;70.88;99506.25;1763664;80;21047;-60
2022/02/08 01:17:02;;;;;;;6.03;1.80;;;;;;;2.73;70.92;99514.13;1758719;80;21946;-60
2022/02/08 01:19:29;;;;;;;4.50;1.27;;;;;;;2.73;70.97;99513.30;1766869;80;21042;-60
2022/02/08 01:21:55;;;;;;;5.67;1.72;;;;;;;2.73;70.83;99525.83;1762835;80;21407;-59
2022/02/08 01:24:22;;;;;;;4.12;1.30;;;;;;;2.75;70.79;99534.82;1761122;80;22100;-59
2022/02/08 01:26:58;;;;;;;3.52;1.27;;;;;;;2.68;70.93;99540.86;1760747;80;21045;-59
2022/02/08 01:29:34;;;;;;;4.42;1.40;;;;;;;2.64;70.98;99525.10;1753836;80;21034;-60
2022/02/08 01:31:52;;;;;;;5.00;1.35;;;;;;;2.66;70.88;99532.33;1751440;80;21044;-60
2022/02/08 01:34:38;;;;;;;4.15;1.32;;;;;;;2.63;70.86;99538.17;1754862;80;21038;-60
2022/02/08 01:37:08;;;;;;;4.10;1.25;;;;;;;2.57;70.98;99546.72;1735984;80;21236;-58
2022/02/08 01:39:57;;;;;;;3.77;1.50;;;;;;;2.59;70.94;99540.13;1689878;82;21043;-58
2022/02/08 01:42:51;;;;;;;4.15;1.55;;;;;;;2.57;70.57;99539.36;1742933;80;21004;-58
2022/02/08 01:47:08;;;;;;;3.08;1.05;;;;;;;2.57;70.43;99557.55;1739458;80;21587;-58
2022/02/08 01:49:32;;;;;;;3.77;1.20;;;;;;;2.61;70.18;99551.25;1757583;80;21106;-59
2022/02/08 01:51:58;;;;;;;4.22;1.20;;;;;;;2.62;69.93;99560.70;1746224;80;21042;-58
2022/02/08 01:54:25;;;;;;;3.37;1.10;;;;;;;2.52;70.08;99555.25;1756480;80;21101;-59
2022/02/08 01:56:52;;;;;;;5.72;1.27;;;;;;;2.54;70.02;99553.83;1693494;82;21047;-60
2022/02/08 01:59:19;;;;;;;4.05;1.10;;;;;;;2.60;69.87;99556.89;1751090;80;21082;-60
2022/02/08 02:01:45;;;;;;;3.50;1.30;;;;;;;2.62;69.79;99563.77;1753998;80;21072;-60
2022/02/08 02:04:12;;;;;;;3.60;1.22;;;;;;;2.60;69.69;99564.69;1757192;80;21078;-59
2022/02/08 02:06:40;;;;;;;3.35;1.25;;;;;;;2.60;69.57;99565.98;1756812;80;21153;-59
2022/02/08 02:09:08;;;;;;;3.27;0.90;;;;;;;2.67;69.29;99569.05;1696708;82;21821;-59
2022/02/08 02:11:36;;;;;;;3.15;1.10;;;;;;;2.68;69.05;99572.03;1733497;80;21091;-59
2022/02/08 02:14:03;;;;;;;4.05;1.30;;;;;;;2.71;69.06;99578.34;1756449;80;21105;-59
2022/02/08 02:19:15;;;;;;;5.03;1.47;;;;;;;2.76;68.59;99581.97;1759979;80;21054;-60
2022/02/08 02:21:42;;;;;;;4.37;1.30;;;;;;;2.81;68.33;99581.67;1751463;80;21123;-60
2022/02/08 02:24:08;;;;;;;4.72;1.20;;;;;;;2.83;68.25;99586.33;1736332;80;21697;-59
2022/02/08 02:26:35;;;;;;;3.77;1.30;;;;;;;2.82;68.04;99591.14;1754244;80;21106;-58
2022/02/08 02:29:02;;;;;;;5.35;1.32;;;;;;;2.78;67.89;99590.03;1755185;80;21059;-58
2022/02/08 02:31:28;;;;;;;3.30;1.22;;;;;;;2.85;67.81;99594.86;1693774;82;21059;-59
2022/02/08 02:33:55;;;;;;;4.10;1.52;;;;;;;2.92;67.61;99598.27;1757265;80;21104;-59
2022/02/08 02:36:21;;;;;;;3.83;1.20;;;;;;;2.92;67.30;99606.55;1738195;80;22305;-59
2022/02/08 02:38:48;;;;;;;4.17;1.82;;;;;;;2.93;67.18;99604.33;1750947;80;22016;-59
2022/02/08 02:41:17;;;;;;;4.15;1.25;;;;;;;2.91;67.12;99605.72;1751072;80;21155;-60
2022/02/08 02:43:45;;;;;;;3.72;1.62;;;;;;;2.92;66.88;99613.87;1738455;80;21728;-60
2022/02/08 02:46:12;;;;;;;4.95;1.40;;;;;;;2.97;66.69;99618.32;1754070;80;21110;-59
2022/02/08 02:48:39;;;;;;;4.62;1.45;;;;;;;2.98;66.59;99622.60;1754746;80;21066;-59
2022/02/08 02:51:09;;;;;;;6.25;1.67;;;;;;;2.97;66.65;99626.12;1750967;80;21138;-59
2022/02/08 02:53:38;;;;;;;7.25;1.72;;;;;;;2.92;66.48;99633.83;1750329;80;21035;-60
2022/02/08 02:56:09;;;;;;;5.65;2.15;;;;;;;2.91;66.66;99636.91;1747457;80;21023;-59
2022/02/08 02:58:38;;;;;;;6.05;2.20;;;;;;;2.92;66.61;99635.95;1733510;80;21047;-59
2022/02/08 03:01:10;;;;;;;4.25;1.32;;;;;;;2.95;66.57;99640.14;1753592;80;21078;-60
2022/02/08 03:17:58;;;;;;;5.10;2.02;;;;;;;2.89;66.16;99666.49;1737514;80;21290;-59
2022/02/08 03:20:10;;;;;;;7.25;2.08;;;;;;;2.88;66.29;99671.34;1751317;80;21083;-59
2022/02/08 03:22:40;;;;;;;4.67;2.25;;;;;;;2.84;66.37;99681.08;1750250;80;21032;-59
2022/02/08 03:25:08;;;;;;;7.25;2.00;;;;;;;2.91;66.19;99685.45;1752992;80;21071;-58
2022/02/08 03:27:35;;;;;;;6.17;2.12;;;;;;;2.94;66.00;99688.70;1755303;80;21039;-60
2022/02/08 03:30:04;;;;;;;6.20;2.15;;;;;;;2.94;66.00;99696.50;1695184;82;21315;-60
2022/02/08 03:32:32;;;;;;;4.72;1.92;;;;;;;2.93;65.71;99695.28;1760033;80;21039;-60
2022/02/08 03:34:58;;;;;;;4.60;2.08;;;;;;;2.92;65.53;99699.62;1755200;80;21043;-60
2022/02/08 03:37:28;;;;;;;7.12;2.05;;;;;;;2.94;65.41;99702.14;1738195;80;20955;-60
2022/02/08 03:40:03;;;;;;;5.10;2.22;;;;;;;2.97;65.35;99702.78;1749257;80;21457;-60
2022/02/08 03:43:31;;;;;;;5.37;1.65;;;;;;;3.00;65.31;99704.38;1805228;77;22689;-53
2022/02/08 03:46:03;;;;;;;6.17;2.15;;;;;;;2.98;64.96;99717.94;1782217;78;21057;-53
2022/02/08 03:48:31;;;;;;;4.67;1.72;;;;;;;2.99;64.96;99711.80;1779386;78;21235;-52
2022/02/08 03:51:11;;;;;;;4.28;1.47;;;;;;;2.98;64.92;99720.53;1739549;78;21090;-52
2022/02/08 03:53:28;;;;;;;4.50;1.50;;;;;;;2.99;64.75;99723.48;1776759;79;21576;-53
2022/02/08 03:55:55;;;;;;;4.78;1.60;;;;;;;3.05;64.62;99721.84;1783660;78;21466;-53
2022/02/08 03:58:22;;;;;;;7.58;1.80;;;;;;;3.06;64.57;99730.46;1776128;78;22301;-52
2022/02/08 04:01:36;;;;;;;4.33;1.80;;;;;;;3.03;64.54;99728.89;1741834;80;21938;-53
2022/02/08 04:03:39;;;;;;;5.30;1.82;;;;;;;3.02;64.60;99736.31;1777912;78;21583;-53
2022/02/08 04:06:04;;;;;;;4.33;1.55;;;;;;;2.97;64.50;99733.14;1759071;78;21565;-53
2022/02/08 04:08:33;;;;;;;4.87;1.65;;;;;;;3.01;64.40;99746.35;1777472;78;21058;-53
2022/02/08 04:11:00;;;;;;;4.00;1.30;;;;;;;3.06;64.23;99754.71;1763513;79;21047;-55
2022/02/08 04:13:43;;;;;;;3.80;1.25;;;;;;;3.06;64.13;99759.05;1778162;78;21398;-55
2022/02/08 04:16:12;;;;;;;5.75;1.85;;;;;;;3.04;64.17;99764.34;1748039;79;21081;-54
2022/02/08 04:18:59;;;;;;;4.92;1.85;;;;;;;3.00;64.23;99773.26;1754512;80;21472;-55
2022/02/08 04:34:55;;;;;;;3.85;1.22;;;;;;;2.90;64.78;99809.33;1773383;78;21552;-54
2022/02/08 04:37:47;;;;;;;4.67;1.70;;;;;;;2.96;64.75;99806.39;1777879;78;21057;-54
2022/02/08 04:40:00;;;;;;;5.00;1.70;;;;;;;2.94;64.52;99805.65;1742634;80;21190;-54
2022/02/08 04:44:51;;;;;;;6.20;2.42;;;;;;;2.92;64.78;99824.84;1755765;79;21493;-53
2022/02/08 04:47:22;;;;;;;5.50;1.67;;;;;;;2.93;64.95;99841.64;1770166;79;21532;-55
2022/02/08 04:49:41;;;;;;;5.17;1.85;;;;;;;2.96;64.78;99842.78;1764959;79;21114;-54
2022/02/08 04:52:10;;;;;;;6.95;2.05;;;;;;;2.98;64.84;99844.81;1737996;80;21123;-54
2022/02/08 04:55:01;;;;;;;4.80;1.80;;;;;;;2.98;64.88;99851.78;1760444;79;21029;-54
2022/02/08 04:57:28;;;;;;;3.60;1.45;;;;;;;2.96;64.92;99854.95;1779425;79;22195;-54
2022/02/08 05:26:38;;;;;;;4.65;1.75;;;;;;;3.01;64.91;99849.02;1770025;79;21094;-52
2022/02/08 05:40:39;;;;;;;5.55;2.27;;;;;;;3.23;64.41;99908.86;1763413;79;21081;-53
2022/02/08 05:43:14;;;;;;;3.42;1.50;;;;;;;3.25;64.33;99925.23;1734821;79;21583;-53
2022/02/08 05:45:47;;;;;;;5.42;1.92;;;;;;;3.20;64.38;99924.19;1762856;79;21159;-54
2022/02/08 05:48:07;;;;;;;4.58;1.60;;;;;;;3.15;64.51;99930.94;1765736;79;20984;-52
2022/02/08 05:50:44;;;;;;;5.58;1.90;;;;;;;3.10;64.65;99934.27;1737851;80;21086;-53
2022/02/08 05:53:27;;;;;;;5.42;1.75;;;;;;;3.17;64.61;99937.36;1736479;80;21063;-53
2022/02/08 05:55:36;;;;;;;5.37;1.77;;;;;;;3.22;64.52;99944.91;1770432;79;21094;-52
2022/02/08 05:58:03;;;;;;;4.22;1.80;;;;;;;3.24;64.42;99945.64;1763917;79;21149;-53
2022/02/08 06:00:31;;;;;;;4.58;1.87;;;;;;;3.22;64.39;99944.44;1746801;80;21379;-53
2022/02/08 06:03:11;;;;;;;5.65;1.80;;;;;;;3.22;64.37;99948.80;1739350;80;21098;-54
2022/02/08 06:05:40;;;;;;;8.40;1.92;;;;;;;3.19;64.53;99958.07;1762123;79;21130;-52
2022/02/08 06:08:06;;;;;;;5.10;1.87;;;;;;;3.20;64.59;99961.89;1767006;79;21055;-53
2022/02/08 06:10:39;;;;;;;4.75;1.90;;;;;;;3.26;64.49;99969.36;1765430;79;22479;-53
2022/02/08 06:13:02;;;;;;;7.33;2.50;;;;;;;3.30;64.31;99971.31;1742347;80;20999;-54
2022/02/08 06:15:31;;;;;;;5.35;2.33;;;;;;;3.28;64.31;99967.50;1766886;79;21571;-53
2022/02/08 06:17:59;;;;;;;4.65;1.72;;;;;;;3.29;64.35;99971.75;1762045;79;21138;-55
2022/02/08 06:20:27;;;;;;;4.80;2.00;;;;;;;3.30;64.21;99968.72;1770391;79;21114;-53
2022/02/08 06:22:53;;;;;;;7.78;1.82;;;;;;;3.28;64.14;99973.17;1773070;79;21829;-53
2022/02/08 06:25:20;;;;;;;5.83;2.10;;;;;;;3.29;64.09;99973.53;1760907;79;21542;-53
2022/02/08 06:27:49;;;;;;;5.12;1.92;;;;;;;3.34;63.97;99970.20;1754142;79;21537;-54
2022/02/08 06:30:18;;;;;;;5.83;1.90;;;;;;;3.34;63.84;99971.50;1758877;79;21086;-55
2022/02/08 06:32:46;;;;;;;5.97;1.98;;;;;;;3.35;63.87;99972.72;1763044;79;21109;-54
2022/02/08 06:35:18;;;;;;;6.50;2.47;;;;;;;3.34;63.81;99975.41;1769742;79;21095;-55
2022/02/08 06:37:41;;;;;;;6.45;2.25;;;;;;;3.33;63.73;99986.75;1747129;80;21058;-54
2022/02/08 06:40:10;;;;;;;5.22;1.87;;;;;;;3.29;63.70;99988.66;1744156;80;21477;-55
2022/02/08 06:42:37;;;;;;;7.08;1.95;;;;;;;3.30;63.70;99993.42;1759928;79;21082;-57
2022/02/08 06:45:06;;;;;;;4.17;1.47;;;;;;;3.36;63.63;99999.55;1767562;79;21126;-56
2022/02/08 06:47:34;;;;;;;4.90;2.02;;;;;;;3.39;63.62;100005.06;1768265;79;21150;-55
2022/02/08 06:50:01;;;;;;;6.35;2.08;;;;;;;3.36;63.32;100004.76;1769335;79;22594;-54
2022/02/08 06:52:27;;;;;;;5.65;2.27;;;;;;;3.38;63.32;100007.27;1769689;79;21133;-53
2022/02/08 06:54:54;;;;;;;5.47;2.25;;;;;;;3.33;63.30;100005.78;1764118;79;21080;-54
2022/02/08 06:57:21;;;;;;;5.95;2.37;;;;;;;3.34;63.46;100011.81;1763002;79;21105;-55
2022/02/08 06:59:53;;;;;;;4.92;1.60;;;;;;;3.40;63.35;100019.28;1738144;80;21196;-55
2022/02/08 07:02:19;;;;;;;7.05;2.27;;;;;;;3.45;63.12;100018.56;1765304;79;20984;-54
2022/02/08 07:04:46;;;;;;;5.67;1.90;;;;;;;3.42;62.85;100012.70;1733301;79;21577;-54
2022/02/08 07:07:16;;;;;;;7.40;2.25;;;;;;;3.40;62.98;100023.19;1755515;79;21522;-55
2022/02/08 07:09:44;;;;;;;5.65;2.27;;;;;;;3.37;63.14;100026.42;1736300;79;21125;-55
2022/02/08 07:12:12;;;;;;;6.03;2.20;;;;;;;3.34;63.20;100033.92;1735433;79;21082;-57
2022/02/08 07:14:40;;;;;;;5.62;2.00;;;;;;;3.35;63.16;100037.73;1757639;79;21552;-56
2022/02/08 07:17:07;;;;;;;4.67;1.87;;;;;;;3.42;62.96;100036.94;1762245;79;21049;-55
2022/02/08 07:19:33;;;;;;;5.53;2.58;;;;;;;3.47;62.80;100037.98;1738032;79;22548;-52
2022/02/08 07:22:00;;;;;;;3.77;1.80;;;;;;;3.51;62.66;100046.84;1764046;79;21093;-53
2022/02/08 07:24:27;;;;;;;4.95;1.70;;;;;;;3.52;62.46;100051.09;1735917;80;21155;-54
2022/02/08 07:26:55;;;;;;;4.55;1.90;;;;;;;3.49;62.28;100068.65;1770951;79;21082;-54
2022/02/08 07:29:22;;;;;;;6.20;1.90;;;;;;;3.48;62.41;100067.81;1732221;79;21559;-54
2022/02/08 07:31:56;;;;;;;6.78;1.55;;;;;;;3.48;62.27;100072.16;1734179;80;21591;-53
2022/02/08 07:34:25;;;;;;;8.38;2.00;;;;;;;3.56;62.15;100087.36;1737912;80;21050;-54
2022/02/08 07:37:03;;;;;;;5.75;1.98;;;;;;;3.60;61.46;100081.05;1736629;80;21506;-54
2022/02/08 07:39:36;;;;;;;5.42;2.22;;;;;;;3.64;61.35;100091.67;1733418;80;21125;-55
2022/02/08 07:41:53;;;;;;;5.65;2.15;;;;;;;3.61;61.05;100095.27;1760157;79;21577;-53
2022/02/08 07:44:19;;;;;;;5.15;1.95;;;;;;;3.57;61.13;100086.45;1761807;79;21219;-55
2022/02/08 07:46:57;;;;;;;8.73;2.25;;;;;;;3.52;61.12;100096.62;1706444;82;21669;-56
2022/02/08 07:49:23;;;;;;;4.75;1.90;;;;;;;3.48;61.27;100099.47;1692662;81;22017;-55
2022/02/08 07:51:51;;;;;;;5.70;2.00;;;;;;;3.46;61.17;100106.09;1715365;81;21612;-57
2022/02/08 07:54:17;;;;;;;4.97;1.70;;;;;;;3.46;61.28;100109.99;1715515;81;21078;-57
2022/02/08 07:56:44;;;;;;;5.20;2.40;;;;;;;3.46;61.00;100108.69;1712010;82;21997;-54
2022/02/08 07:59:10;;;;;;;8.45;2.50;;;;;;;3.49;61.02;100116.77;1714947;81;22236;-55
2022/02/08 08:01:36;;;;;;;6.62;2.00;;;;;;;3.49;60.91;100118.91;1713573;81;21938;-54
2022/02/08 08:04:04;;;;;;;4.92;1.72;;;;;;;3.49;60.77;100129.31;1698664;83;21718;-55
2022/02/08 08:06:31;;;;;;;6.12;2.65;;;;;;;3.46;60.47;100139.91;1712040;81;21121;-54
2022/02/08 08:08:58;;;;;;;7.90;2.58;;;;;;;3.49;60.61;100132.37;1687510;83;21105;-58
2022/02/08 08:11:24;;;;;;;4.53;1.60;;;;;;;3.49;59.87;100142.78;1688929;81;21169;-55
2022/02/08 08:16:42;;;;;;;6.20;2.45;;;;;;;3.50;60.12;100145.31;1711438;81;21090;-55
2022/02/08 08:21:24;;;;;;;7.62;2.08;;;;;;;3.61;59.75;100154.28;1709729;82;21073;-56
2022/02/08 08:23:51;;;;;;;5.62;1.90;;;;;;;3.63;59.30;100163.70;1708159;81;21093;-56
2022/02/08 08:26:18;;;;;;;6.55;2.05;;;;;;;3.64;58.90;100156.25;1705129;82;21117;-52
2022/02/08 08:28:44;;;;;;;6.58;2.22;;;;;;;3.60;58.00;100165.16;1704080;81;21093;-55
2022/02/08 08:31:10;;;;;;;6.10;2.10;;;;;;;3.60;58.08;100181.22;1705796;80;21132;-54
2022/02/08 08:33:37;;;;;;;6.75;2.52;;;;;;;3.61;58.55;100178.53;1735388;80;21110;-55
2022/02/08 08:36:05;;;;;;;4.08;1.67;;;;;;;3.64;58.24;100178.38;1737421;80;21106;-57
2022/02/08 08:38:33;;;;;;;9.45;2.20;;;;;;;3.70;58.19;100192.36;1705877;80;21117;-56
2022/02/08 08:41:11;;;;;;;6.83;2.02;;;;;;;3.73;58.10;100187.43;1708668;82;21453;-56
2022/02/08 08:53:58;;;;;;;8.38;2.15;;;;;;;3.75;55.90;100200.36;1715915;82;21093;-57
2022/02/08 08:56:24;;;;;;;4.83;2.15;;;;;;;3.78;55.84;100198.43;1689418;82;21106;-56
2022/02/08 08:58:51;;;;;;;5.22;2.02;;;;;;;3.81;55.77;100205.24;1689314;83;21201;-56
2022/02/08 09:01:17;;;;;;;8.75;2.00;;;;;;;3.81;55.50;100213.88;1722097;81;21152;-56
2022/02/08 09:03:45;;;;;;;6.10;2.02;;;;;;;3.87;55.59;100215.33;1689528;81;21319;-56
2022/02/08 09:06:11;;;;;;;5.62;1.87;;;;;;;3.89;55.38;100204.36;1711190;81;21170;-55
2022/02/08 09:08:41;;;;;;;5.80;1.90;;;;;;;3.94;55.25;100209.33;1713906;82;21061;-55
2022/02/08 09:11:14;;;;;;;6.40;1.98;;;;;;;3.96;54.56;100205.70;1711766;81;21081;-56
2022/02/08 09:13:42;;;;;;;5.83;1.75;;;;;;;4.01;54.26;100207.58;1715014;81;21065;-57
2022/02/08 09:16:23;;;;;;;6.75;1.82;;;;;;;4.04;53.67;100200.08;1711828;81;21131;-55
2022/02/08 09:21:37;;;;;;;5.15;1.90;;;;;;;4.00;53.01;100213.73;1710587;82;21106;-57
2022/02/08 09:24:16;;;;;;;5.62;1.60;;;;;;;4.03;53.04;100207.50;1661378;82;21094;-54
2022/02/08 09:27:04;;;;;;;5.45;1.87;;;;;;;4.07;53.10;100216.84;1707663;81;21675;-52
2022/02/08 09:28:59;;;;;;;5.35;1.70;;;;;;;4.09;52.75;100229.30;1701313;82;21130;-56
2022/02/08 09:31:24;;;;;;;4.35;1.62;;;;;;;4.12;52.32;100221.77;1682468;83;21003;-58
2022/02/08 09:33:50;;;;;;;6.10;2.17;;;;;;;4.13;52.48;100228.66;1734560;80;21146;-54
2022/02/08 09:36:20;;;;;;;5.42;1.57;;;;;;;4.13;52.04;100219.55;1675381;82;21086;-56
2022/02/08 09:38:46;;;;;;;4.53;1.57;;;;;;;4.08;51.61;100218.49;1728578;80;21114;-55
2022/02/08 09:41:13;;;;;;;5.25;2.00;;;;;;;4.06;51.77;100230.77;1735398;80;21066;-54
2022/02/08 09:43:40;;;;;;;7.55;2.70;;;;;;;4.06;51.87;100231.59;1734396;80;21077;-56
2022/02/08 09:46:09;;;;;;;7.00;1.90;;;;;;;4.03;51.53;100229.16;1712164;82;21054;-54
2022/02/08 09:48:41;;;;;;;5.47;1.92;;;;;;;4.02;51.63;100237.08;1731584;80;21102;-56
2022/02/08 09:51:03;;;;;;;6.28;1.77;;;;;;;3.98;51.40;100222.53;1685068;83;21082;-56
2022/02/08 09:53:32;;;;;;;4.67;1.47;;;;;;;4.00;51.10;100231.09;1709303;82;21479;-57
2022/02/08 09:55:59;;;;;;;4.90;1.60;;;;;;;3.95;49.95;100240.48;1728110;80;21087;-55
2022/02/08 09:58:27;;;;;;;3.52;1.15;;;;;;;3.88;49.38;100234.77;1681914;82;21537;-54
2022/02/08 10:01:15;;;;;;;6.58;1.10;;;;;;;3.91;49.81;100238.48;1686152;82;21144;-54
2022/02/08 10:03:54;;;;;;;3.52;0.80;;;;;;;3.85;48.35;100232.33;1710405;81;21734;-54
2022/02/08 10:06:20;;;;;;;3.33;1.02;;;;;;;3.74;47.52;100241.64;1685022;82;21256;-53
2022/02/08 10:09:08;;;;;;;3.60;0.82;;;;;;;3.77;48.56;100240.19;1713893;81;21082;-52
2022/02/08 10:11:49;;;;;;;2.77;0.70;;;;;;;3.74;48.46;100240.34;1710196;81;21615;-53
2022/02/08 10:20:52;;;;;;;5.58;1.27;;;;;;;3.83;49.18;100233.32;1690808;81;21171;-54
2022/02/08 10:22:34;;;;;;;3.67;1.25;;;;;;;3.83;48.94;100234.63;1689073;81;21674;-52
2022/02/08 10:25:05;;;;;;;3.67;0.85;;;;;;;3.77;47.95;100225.39;1712886;81;21136;-54
2022/02/08 10:27:39;;;;;;;4.00;1.22;;;;;;;3.82;49.11;100230.36;1712191;81;21490;-53
2022/02/08 10:38:25;;;;;;;5.28;1.15;;;;;;;3.77;48.22;100221.49;1734209;80;21062;-54
2022/02/08 10:40:55;;;;;;;1.90;0.60;;;;;;;3.79;48.33;100230.52;1712178;81;21548;-54
2022/02/08 10:43:20;;;;;;;3.77;1.00;;;;;;;3.77;47.93;100233.20;1706992;82;21098;-55
2022/02/08 10:45:46;;;;;;;3.12;0.75;;;;;;;3.76;47.89;100228.08;1678483;83;21162;-54
2022/02/08 10:48:21;;;;;;;3.35;0.90;;;;;;;3.79;48.18;100235.73;1766774;79;21070;-55
2022/02/08 10:50:53;;;;;;;3.42;1.10;;;;;;;3.77;48.32;100232.38;1766477;79;21061;-54
2022/02/08 10:53:15;;;;;;;8.68;1.60;;;;;;;3.73;48.45;100227.77;1762902;79;21046;-55
2022/02/08 10:55:48;;;;;;;3.35;1.05;;;;;;;3.74;48.61;100225.55;1765420;79;21057;-54
2022/02/08 10:58:26;;;;;;;3.58;1.00;;;;;;;3.73;48.59;100231.67;1740801;80;21328;-55
2022/02/08 11:03:26;;;;;;;2.95;0.80;;;;;;;3.80;48.56;100233.48;1770384;79;21513;-54
2022/02/08 11:06:06;;;;;;;4.25;1.35;;;;;;;3.78;48.00;100230.13;1763586;79;22193;-54
2022/02/08 11:08:39;;;;;;;3.95;1.32;;;;;;;3.77;48.33;100229.30;1764408;79;21097;-53
2022/02/08 11:11:08;;;;;;;3.50;1.00;;;;;;;3.72;48.34;100224.80;1738927;79;22821;-53
2022/02/08 11:13:43;;;;;;;3.92;0.85;;;;;;;3.74;48.50;100238.57;1740513;80;20987;-53
2022/02/08 11:16:27;;;;;;;3.75;0.98;;;;;;;3.73;48.18;100232.97;1766157;79;21051;-53
2022/02/08 11:19:11;;;;;;;3.83;0.90;;;;;;;3.74;48.34;100237.27;1763465;79;21074;-54
2022/02/08 11:21:48;;;;;;;3.30;0.85;;;;;;;3.74;48.71;100233.37;1732312;79;21730;-54
2022/02/08 11:24:41;;;;;;;4.17;0.93;;;;;;;3.68;48.77;100234.55;1710718;80;22051;-52
2022/02/08 11:27:14;;;;;;;2.10;0.70;;;;;;;3.65;48.32;100240.37;1758866;79;21138;-53
2022/02/08 11:30:04;;;;;;;2.92;0.62;;;;;;;3.59;48.64;100244.60;1738656;80;21000;-53
2022/02/08 11:32:45;;;;;;;3.58;1.40;;;;;;;3.61;49.20;100242.75;1766127;79;21123;-52
2022/02/08 11:46:39;;;;;;;5.55;1.22;;;;;;;3.76;47.92;100242.39;1758605;79;21023;-54
2022/02/08 11:51:43;;;;;;;3.55;1.15;;;;;;;3.82;47.06;100240.77;1767365;79;21103;-54
2022/02/08 11:54:55;;;;;;;3.45;1.30;;;;;;;3.85;47.70;100245.34;1734144;79;21077;-55
2022/02/08 12:02:41;;;;;;;3.95;1.07;;;;;;;4.01;47.47;100254.45;1765031;79;21485;-53
2022/02/08 12:04:45;;;;;;;3.30;1.10;;;;;;;4.00;46.59;100255.83;1774338;79;21112;-53
2022/02/08 12:07:07;;;;;;;3.33;0.95;;;;;;;3.98;46.75;100262.89;1741706;80;21532;-53
2022/02/08 12:09:44;;;;;;;2.85;1.05;;;;;;;3.96;47.02;100262.97;1755350;79;21046;-53
2022/02/08 12:40:02;;;;;;;7.72;1.75;;;;;;;3.95;47.39;100287.34;1770416;79;21077;-53
2022/02/08 12:48:38;;;;;;;3.98;1.35;;;;;;;3.91;46.85;100289.25;1764367;79;21131;-51
2022/02/08 12:51:02;;;;;;;3.40;1.22;;;;;;;3.91;47.11;100289.25;1686048;82;21083;-56
2022/02/08 12:55:55;;;;;;;4.53;1.40;;;;;;;3.88;46.74;100302.45;1684100;83;21174;-54
2022/02/08 13:03:27;;;;;;;3.25;1.15;;;;;;;3.83;46.71;100305.77;1680301;83;21094;-54
2022/02/08 13:20:03;;;;;;;1.65;0.60;;;;;;;3.64;46.83;100296.77;1655693;82;21192;-57
2022/02/08 14:06:20;;;;;;;4.03;1.22;;;;;;;3.65;47.09;100317.14;1711422;81;21121;-54
2022/02/08 14:14:03;;;;;;;4.97;2.02;;;;;;;3.74;47.12;100321.85;1708387;81;21070;-56
2022/02/08 14:22:12;;;;;;;4.40;1.32;;;;;;;3.80;46.65;100326.74;1688737;82;21029;-54
2022/02/08 14:24:49;;;;;;;3.90;1.25;;;;;;;3.80;46.84;100325.44;1696541;83;21591;-55
2022/02/08 14:29:56;;;;;;;5.28;1.50;;;;;;;3.79;47.08;100339.36;1711556;81;21267;-54
2022/02/08 14:32:27;;;;;;;4.75;1.20;;;;;;;3.77;47.03;100336.48;1673300;83;21089;-55
2022/02/08 15:10:19;;;;;;;5.35;1.27;;;;;;;3.47;48.01;100339.74;1714856;82;21023;-56
2022/02/08 15:12:49;;;;;;;5.37;1.40;;;;;;;3.46;47.89;100342.81;1708926;82;21205;-55
2022/02/08 15:15:21;;;;;;;3.62;1.30;;;;;;;3.47;47.60;100343.17;1686783;82;21651;-55
2022/02/08 15:17:39;;;;;;;3.92;1.50;;;;;;;3.46;47.81;100345.41;1710522;82;21090;-54
2022/02/08 15:20:08;;;;;;;5.12;1.80;;;;;;;3.42;47.83;100344.34;1712804;82;21110;-56
2022/02/08 15:22:34;;;;;;;6.72;1.57;;;;;;;3.43;48.07;100348.60;1686015;82;21589;-55
2022/02/08 15:25:02;;;;;;;8.25;2.37;;;;;;;3.44;48.15;100348.53;1682587;82;22457;-57
2022/02/08 15:27:29;;;;;;;5.78;1.85;;;;;;;3.45;48.26;100350.22;1707969;82;21144;-56
2022/02/08 15:29:56;;;;;;;6.83;2.80;;;;;;;3.46;48.50;100357.12;1712922;82;21122;-54
2022/02/08 15:32:23;;;;;;;6.87;1.90;;;;;;;3.48;48.36;100361.78;1712600;82;21134;-55
2022/02/08 15:34:50;;;;;;;4.53;1.40;;;;;;;3.48;47.85;100366.98;1713811;82;21117;-56
2022/02/08 15:37:16;;;;;;;3.00;0.70;;;;;;;3.48;48.09;100372.19;1712609;82;21142;-56
2022/02/08 15:39:44;;;;;;;5.00;0.93;;;;;;;3.46;47.48;100363.63;1686965;82;21107;-55
2022/02/08 15:42:10;;;;;;;5.17;1.07;;;;;;;3.44;47.18;100356.33;1710871;82;21077;-58
2022/02/08 15:44:40;;;;;;;4.00;1.32;;;;;;;3.46;47.57;100362.76;1708433;82;21558;-57
2022/02/08 15:47:10;;;;;;;5.20;1.85;;;;;;;3.44;47.93;100368.51;1672750;82;21090;-55
2022/02/08 15:49:42;;;;;;;2.90;1.12;;;;;;;3.46;47.90;100362.33;1690488;82;21878;-56
2022/02/08 15:52:24;;;;;;;6.35;1.70;;;;;;;3.42;48.00;100362.55;1689760;82;21125;-55
2022/02/08 15:54:43;;;;;;;6.33;1.98;;;;;;;3.40;48.13;100365.69;1698664;82;21079;-55
2022/02/08 16:11:59;;;;;;;6.00;1.82;;;;;;;4.93;46.13;100370.95;1852673;75;22670;-55
2022/02/08 16:22:17;;;;;;;4.65;1.17;;;;;;;4.73;45.93;100377.75;1782279;78;21092;-55
2022/02/08 16:27:17;;;;;;;4.33;1.60;;;;;;;4.44;46.56;100374.52;1727693;79;21033;-55
2022/02/08 16:46:08;;;;;;;5.65;1.92;;;;;;;4.02;47.43;100360.28;1754108;80;21073;-56
2022/02/08 16:56:55;;;;;;;7.35;2.27;;;;;;;3.79;48.30;100368.00;1780363;79;22017;-55
2022/02/08 16:59:09;;;;;;;5.67;2.10;;;;;;;3.79;48.29;100370.59;1774379;79;21123;-55
2022/02/08 17:01:37;;;;;;;7.58;1.80;;;;;;;3.76;48.31;100368.63;1739426;80;21110;-56
2022/02/08 17:04:08;;;;;;;5.08;1.87;;;;;;;3.74;48.54;100367.39;1744812;79;21106;-55
2022/02/08 17:06:34;;;;;;;4.60;1.75;;;;;;;3.71;48.57;100372.28;1781272;79;21089;-55
2022/02/08 17:09:07;;;;;;;5.90;2.30;;;;;;;3.66;48.58;100376.88;1784994;78;21083;-55
2022/02/08 17:11:40;;;;;;;8.73;2.65;;;;;;;3.63;48.72;100365.80;1715653;81;21066;-56